Airfield :
LOGIN :

Register | Disclaimer

   EN    FR    IT 

 










Legend :    VFR   Marginal VFR   IFR   Intensive IFR   Very Intensive IFR
Visi :
Ceiling :
>= 8 km
>= 3000ft
5 to 8 km
1000 to 3000 ft
1500m to 5 km
500 to 1000 ft
800 to 1500m
200 to 500 ft
< 800m
< 200 ft
Symbols :   Thunderstorms  Fog  Heavy snow  Heavy precipitations  Wind > 20 kt
SIGMETs :     Misc.  Thunderstorms  Icing  Turbulence  Mountain Waves  Volcanic Ashes







- Airport Elevation : 138 ft
- IATA code : RLG


ETNL - Rostock Laage

CURRENT METAR :
  • 270320Z 28014KT 9999 FEW020 13/10 Q1023 BLU+

EXPIRED METARs :
  • 270220Z 29013KT 9999 SCT018 13/11 Q1023 BLU+
  • 270120Z 29014KT 9999 BKN016 14/11 Q1022 WHT

TAF TAF ETNL
Valid from the 26 at 23:00 until the 27 at 11:00 UTC


262200Z 2623/2711 30010G20KT 9999 NSW BKN020
PROB30 2623/2708 31012G25KT 8000 NSW BKN012
BECMG 2708/2710 31015G25KT 9999 NSW BKN030 BY ETGL
No reported NOTAMs for that airfield.



MET'MAP, your aeronautical weather chart ! - Copyright ORBIFLY December 2007 - Disclaimer

ORBIFLY MET'MAP TEAM :

Programming & Development : Alexandra Zaïnal
Concept & Development : Baudouin d'Aumeries
Co-Development & Prog : Marc-Olivier Méhu
Technical & hardware support : Manuel Goepfert

Contact : metmap@orbifly.com




SOURCES & CREDITS :

   NOAA